sensor_id;sensor_type;location;lat;lon;timestamp;P1;durP1;ratioP1;P2;durP2;ratioP2
79227;SDS011;75303;53.496;10.214;2024-03-07T00:00:27;15.00;;;5.47;;
79227;SDS011;75303;53.496;10.214;2024-03-07T00:02:52;10.90;;;4.40;;
79227;SDS011;75303;53.496;10.214;2024-03-07T00:05:19;17.33;;;6.85;;
79227;SDS011;75303;53.496;10.214;2024-03-07T00:10:14;12.57;;;5.25;;
79227;SDS011;75303;53.496;10.214;2024-03-07T00:12:40;12.40;;;4.93;;
79227;SDS011;75303;53.496;10.214;2024-03-07T00:15:09;15.87;;;5.77;;
79227;SDS011;75303;53.496;10.214;2024-03-07T00:17:35;14.27;;;5.20;;
79227;SDS011;75303;53.496;10.214;2024-03-07T00:20:01;15.65;;;5.78;;
79227;SDS011;75303;53.496;10.214;2024-03-07T00:22:29;15.88;;;5.40;;
79227;SDS011;75303;53.496;10.214;2024-03-07T00:24:55;15.73;;;7.07;;
79227;SDS011;75303;53.496;10.214;2024-03-07T00:27:20;14.77;;;5.78;;
79227;SDS011;75303;53.496;10.214;2024-03-07T00:29:46;15.10;;;6.63;;
79227;SDS011;75303;53.496;10.214;2024-03-07T00:32:18;18.05;;;6.40;;
79227;SDS011;75303;53.496;10.214;2024-03-07T00:34:47;17.08;;;6.03;;
79227;SDS011;75303;53.496;10.214;2024-03-07T00:37:13;16.42;;;5.65;;
79227;SDS011;75303;53.496;10.214;2024-03-07T00:39:38;15.30;;;6.03;;
79227;SDS011;75303;53.496;10.214;2024-03-07T00:42:03;13.23;;;5.33;;
79227;SDS011;75303;53.496;10.214;2024-03-07T00:44:29;13.88;;;4.90;;
79227;SDS011;75303;53.496;10.214;2024-03-07T00:46:54;13.43;;;5.67;;
79227;SDS011;75303;53.496;10.214;2024-03-07T00:49:19;13.73;;;5.23;;
79227;SDS011;75303;53.496;10.214;2024-03-07T00:51:45;11.85;;;5.50;;
79227;SDS011;75303;53.496;10.214;2024-03-07T00:54:10;16.40;;;5.63;;
79227;SDS011;75303;53.496;10.214;2024-03-07T00:56:37;15.63;;;6.45;;
79227;SDS011;75303;53.496;10.214;2024-03-07T00:59:03;15.80;;;5.53;;
79227;SDS011;75303;53.496;10.214;2024-03-07T01:01:28;16.08;;;6.15;;
79227;SDS011;75303;53.496;10.214;2024-03-07T01:03:53;22.47;;;6.77;;
79227;SDS011;75303;53.496;10.214;2024-03-07T01:06:19;17.87;;;5.70;;
79227;SDS011;75303;53.496;10.214;2024-03-07T01:08:45;13.57;;;5.50;;
79227;SDS011;75303;53.496;10.214;2024-03-07T01:11:10;14.33;;;5.67;;
79227;SDS011;75303;53.496;10.214;2024-03-07T01:13:37;14.60;;;6.25;;
79227;SDS011;75303;53.496;10.214;2024-03-07T01:16:05;13.98;;;5.63;;
79227;SDS011;75303;53.496;10.214;2024-03-07T01:18:31;14.00;;;6.18;;
79227;SDS011;75303;53.496;10.214;2024-03-07T01:20:58;16.42;;;6.03;;
79227;SDS011;75303;53.496;10.214;2024-03-07T01:23:24;18.30;;;6.70;;
79227;SDS011;75303;53.496;10.214;2024-03-07T01:25:49;15.17;;;5.80;;
79227;SDS011;75303;53.496;10.214;2024-03-07T01:28:14;21.53;;;6.50;;
79227;SDS011;75303;53.496;10.214;2024-03-07T01:30:42;15.57;;;5.65;;
79227;SDS011;75303;53.496;10.214;2024-03-07T01:33:07;15.75;;;5.28;;
79227;SDS011;75303;53.496;10.214;2024-03-07T01:35:32;15.97;;;6.87;;
79227;SDS011;75303;53.496;10.214;2024-03-07T01:37:57;17.30;;;6.30;;
79227;SDS011;75303;53.496;10.214;2024-03-07T01:40:23;14.67;;;6.10;;
79227;SDS011;75303;53.496;10.214;2024-03-07T01:42:49;22.87;;;7.20;;
79227;SDS011;75303;53.496;10.214;2024-03-07T01:45:15;16.75;;;6.60;;
79227;SDS011;75303;53.496;10.214;2024-03-07T01:47:40;18.85;;;6.32;;
79227;SDS011;75303;53.496;10.214;2024-03-07T01:50:06;19.88;;;6.07;;
79227;SDS011;75303;53.496;10.214;2024-03-07T01:52:32;20.45;;;6.72;;
79227;SDS011;75303;53.496;10.214;2024-03-07T01:54:58;15.00;;;5.75;;
79227;SDS011;75303;53.496;10.214;2024-03-07T01:57:23;19.73;;;6.05;;
79227;SDS011;75303;53.496;10.214;2024-03-07T01:59:48;17.83;;;6.77;;
79227;SDS011;75303;53.496;10.214;2024-03-07T02:02:15;17.95;;;6.93;;
79227;SDS011;75303;53.496;10.214;2024-03-07T02:04:40;14.43;;;6.27;;
79227;SDS011;75303;53.496;10.214;2024-03-07T02:07:06;15.67;;;6.13;;
79227;SDS011;75303;53.496;10.214;2024-03-07T02:09:31;19.20;;;6.27;;
79227;SDS011;75303;53.496;10.214;2024-03-07T02:11:56;16.50;;;5.33;;
79227;SDS011;75303;53.496;10.214;2024-03-07T02:14:21;21.33;;;5.67;;
79227;SDS011;75303;53.496;10.214;2024-03-07T02:16:47;15.33;;;5.30;;
79227;SDS011;75303;53.496;10.214;2024-03-07T02:19:13;16.73;;;5.57;;
79227;SDS011;75303;53.496;10.214;2024-03-07T02:21:40;17.30;;;6.10;;
79227;SDS011;75303;53.496;10.214;2024-03-07T02:24:05;14.55;;;6.40;;
79227;SDS011;75303;53.496;10.214;2024-03-07T02:26:31;18.03;;;6.03;;
79227;SDS011;75303;53.496;10.214;2024-03-07T02:28:56;20.33;;;6.30;;
79227;SDS011;75303;53.496;10.214;2024-03-07T02:31:21;22.73;;;6.60;;
79227;SDS011;75303;53.496;10.214;2024-03-07T02:33:59;18.30;;;5.75;;
79227;SDS011;75303;53.496;10.214;2024-03-07T02:36:25;15.60;;;5.78;;
79227;SDS011;75303;53.496;10.214;2024-03-07T02:38:53;17.40;;;6.40;;
79227;SDS011;75303;53.496;10.214;2024-03-07T02:41:19;22.67;;;7.35;;
79227;SDS011;75303;53.496;10.214;2024-03-07T02:43:44;19.50;;;5.78;;
79227;SDS011;75303;53.496;10.214;2024-03-07T02:46:09;20.53;;;6.87;;
79227;SDS011;75303;53.496;10.214;2024-03-07T02:48:36;19.85;;;5.30;;
79227;SDS011;75303;53.496;10.214;2024-03-07T02:51:02;14.07;;;5.63;;
79227;SDS011;75303;53.496;10.214;2024-03-07T02:53:27;23.73;;;6.78;;
79227;SDS011;75303;53.496;10.214;2024-03-07T02:55:53;15.60;;;5.80;;
79227;SDS011;75303;53.496;10.214;2024-03-07T02:58:19;16.25;;;4.78;;
79227;SDS011;75303;53.496;10.214;2024-03-07T03:00:44;17.33;;;5.93;;
79227;SDS011;75303;53.496;10.214;2024-03-07T03:03:10;16.27;;;6.20;;
79227;SDS011;75303;53.496;10.214;2024-03-07T03:05:35;15.55;;;5.28;;
79227;SDS011;75303;53.496;10.214;2024-03-07T03:08:00;18.63;;;6.10;;
79227;SDS011;75303;53.496;10.214;2024-03-07T03:10:26;18.58;;;5.30;;
79227;SDS011;75303;53.496;10.214;2024-03-07T03:12:54;19.92;;;5.20;;
79227;SDS011;75303;53.496;10.214;2024-03-07T03:15:19;12.88;;;4.78;;
79227;SDS011;75303;53.496;10.214;2024-03-07T03:17:45;20.38;;;4.88;;
79227;SDS011;75303;53.496;10.214;2024-03-07T03:20:11;14.68;;;4.60;;
79227;SDS011;75303;53.496;10.214;2024-03-07T03:22:43;18.95;;;5.13;;
79227;SDS011;75303;53.496;10.214;2024-03-07T03:25:09;15.43;;;5.47;;
79227;SDS011;75303;53.496;10.214;2024-03-07T03:27:34;17.90;;;5.87;;
79227;SDS011;75303;53.496;10.214;2024-03-07T03:29:59;11.30;;;4.90;;
79227;SDS011;75303;53.496;10.214;2024-03-07T03:32:25;14.85;;;4.50;;
79227;SDS011;75303;53.496;10.214;2024-03-07T03:34:50;13.60;;;4.70;;
79227;SDS011;75303;53.496;10.214;2024-03-07T03:37:17;18.30;;;5.45;;
79227;SDS011;75303;53.496;10.214;2024-03-07T03:39:42;15.32;;;5.07;;
79227;SDS011;75303;53.496;10.214;2024-03-07T03:42:08;15.33;;;4.23;;
79227;SDS011;75303;53.496;10.214;2024-03-07T03:44:35;10.32;;;4.28;;
79227;SDS011;75303;53.496;10.214;2024-03-07T03:47:01;10.45;;;4.22;;
79227;SDS011;75303;53.496;10.214;2024-03-07T03:49:30;12.23;;;5.47;;
79227;SDS011;75303;53.496;10.214;2024-03-07T03:51:55;21.95;;;5.07;;
79227;SDS011;75303;53.496;10.214;2024-03-07T03:54:21;13.47;;;4.47;;
79227;SDS011;75303;53.496;10.214;2024-03-07T03:56:46;12.90;;;5.07;;
79227;SDS011;75303;53.496;10.214;2024-03-07T03:59:11;17.00;;;6.03;;
79227;SDS011;75303;53.496;10.214;2024-03-07T04:01:36;11.50;;;4.90;;
79227;SDS011;75303;53.496;10.214;2024-03-07T04:04:01;16.50;;;4.73;;
79227;SDS011;75303;53.496;10.214;2024-03-07T04:06:27;15.13;;;5.90;;
79227;SDS011;75303;53.496;10.214;2024-03-07T04:08:52;14.83;;;4.83;;
79227;SDS011;75303;53.496;10.214;2024-03-07T04:11:17;15.23;;;5.37;;
79227;SDS011;75303;53.496;10.214;2024-03-07T04:13:44;16.17;;;4.50;;
79227;SDS011;75303;53.496;10.214;2024-03-07T04:16:10;20.92;;;5.68;;
79227;SDS011;75303;53.496;10.214;2024-03-07T04:18:35;14.73;;;4.80;;
79227;SDS011;75303;53.496;10.214;2024-03-07T04:21:01;13.75;;;5.30;;
79227;SDS011;75303;53.496;10.214;2024-03-07T04:23:26;14.50;;;5.03;;
79227;SDS011;75303;53.496;10.214;2024-03-07T04:25:52;12.90;;;4.35;;
79227;SDS011;75303;53.496;10.214;2024-03-07T04:28:18;13.20;;;5.63;;
79227;SDS011;75303;53.496;10.214;2024-03-07T04:30:44;10.38;;;4.05;;
79227;SDS011;75303;53.496;10.214;2024-03-07T04:33:09;14.40;;;4.30;;
79227;SDS011;75303;53.496;10.214;2024-03-07T04:35:34;12.67;;;4.33;;
79227;SDS011;75303;53.496;10.214;2024-03-07T04:38:00;13.25;;;5.07;;
79227;SDS011;75303;53.496;10.214;2024-03-07T04:40:26;19.70;;;6.03;;
79227;SDS011;75303;53.496;10.214;2024-03-07T04:42:51;20.43;;;6.43;;
79227;SDS011;75303;53.496;10.214;2024-03-07T04:45:16;18.07;;;4.67;;
79227;SDS011;75303;53.496;10.214;2024-03-07T04:47:42;15.02;;;5.30;;
79227;SDS011;75303;53.496;10.214;2024-03-07T04:50:09;15.48;;;4.95;;
79227;SDS011;75303;53.496;10.214;2024-03-07T04:52:35;16.48;;;5.03;;
79227;SDS011;75303;53.496;10.214;2024-03-07T04:55:01;12.52;;;4.22;;
79227;SDS011;75303;53.496;10.214;2024-03-07T04:57:27;13.90;;;5.23;;
79227;SDS011;75303;53.496;10.214;2024-03-07T04:59:52;10.53;;;4.47;;
79227;SDS011;75303;53.496;10.214;2024-03-07T05:02:17;14.80;;;4.80;;
79227;SDS011;75303;53.496;10.214;2024-03-07T05:04:42;12.37;;;4.60;;
79227;SDS011;75303;53.496;10.214;2024-03-07T05:07:08;16.15;;;4.10;;
79227;SDS011;75303;53.496;10.214;2024-03-07T05:09:33;12.63;;;4.47;;
79227;SDS011;75303;53.496;10.214;2024-03-07T05:11:58;9.85;;;4.03;;
79227;SDS011;75303;53.496;10.214;2024-03-07T05:14:24;10.63;;;4.03;;
79227;SDS011;75303;53.496;10.214;2024-03-07T05:16:50;8.23;;;3.38;;
79227;SDS011;75303;53.496;10.214;2024-03-07T05:19:29;11.38;;;4.10;;
79227;SDS011;75303;53.496;10.214;2024-03-07T05:21:55;11.18;;;4.13;;
79227;SDS011;75303;53.496;10.214;2024-03-07T05:24:21;11.17;;;3.77;;
79227;SDS011;75303;53.496;10.214;2024-03-07T05:26:46;10.80;;;3.30;;
79227;SDS011;75303;53.496;10.214;2024-03-07T05:29:11;11.25;;;3.20;;
79227;SDS011;75303;53.496;10.214;2024-03-07T05:31:37;12.70;;;4.03;;
79227;SDS011;75303;53.496;10.214;2024-03-07T05:34:09;11.38;;;4.30;;
79227;SDS011;75303;53.496;10.214;2024-03-07T05:36:34;9.23;;;3.87;;
79227;SDS011;75303;53.496;10.214;2024-03-07T05:39:00;10.98;;;3.45;;
79227;SDS011;75303;53.496;10.214;2024-03-07T05:46:33;9.80;;;4.03;;
79227;SDS011;75303;53.496;10.214;2024-03-07T05:49:00;8.70;;;2.95;;
79227;SDS011;75303;53.496;10.214;2024-03-07T05:51:25;11.13;;;3.27;;
79227;SDS011;75303;53.496;10.214;2024-03-07T05:53:51;11.50;;;3.90;;
79227;SDS011;75303;53.496;10.214;2024-03-07T05:56:16;8.10;;;3.50;;
79227;SDS011;75303;53.496;10.214;2024-03-07T05:58:42;13.90;;;4.45;;
79227;SDS011;75303;53.496;10.214;2024-03-07T06:01:07;10.70;;;3.67;;
79227;SDS011;75303;53.496;10.214;2024-03-07T06:03:33;8.98;;;3.67;;
79227;SDS011;75303;53.496;10.214;2024-03-07T06:05:59;10.30;;;3.85;;
79227;SDS011;75303;53.496;10.214;2024-03-07T06:08:24;9.63;;;3.47;;
79227;SDS011;75303;53.496;10.214;2024-03-07T06:10:49;11.02;;;4.60;;
79227;SDS011;75303;53.496;10.214;2024-03-07T06:13:15;10.85;;;3.97;;
79227;SDS011;75303;53.496;10.214;2024-03-07T06:15:45;10.15;;;3.65;;
79227;SDS011;75303;53.496;10.214;2024-03-07T06:18:11;8.70;;;3.90;;
79227;SDS011;75303;53.496;10.214;2024-03-07T06:20:38;8.73;;;3.90;;
79227;SDS011;75303;53.496;10.214;2024-03-07T06:23:04;12.52;;;3.83;;
79227;SDS011;75303;53.496;10.214;2024-03-07T06:25:30;10.70;;;4.05;;
79227;SDS011;75303;53.496;10.214;2024-03-07T06:28:02;10.20;;;3.92;;
79227;SDS011;75303;53.496;10.214;2024-03-07T06:30:35;8.82;;;3.60;;
79227;SDS011;75303;53.496;10.214;2024-03-07T06:33:01;11.30;;;3.90;;
79227;SDS011;75303;53.496;10.214;2024-03-07T06:35:27;7.75;;;2.72;;
79227;SDS011;75303;53.496;10.214;2024-03-07T06:37:52;12.07;;;3.60;;
79227;SDS011;75303;53.496;10.214;2024-03-07T06:40:17;8.83;;;3.57;;
79227;SDS011;75303;53.496;10.214;2024-03-07T06:42:46;11.43;;;3.25;;
79227;SDS011;75303;53.496;10.214;2024-03-07T06:45:11;10.45;;;3.20;;
79227;SDS011;75303;53.496;10.214;2024-03-07T06:47:37;11.23;;;3.80;;
79227;SDS011;75303;53.496;10.214;2024-03-07T06:50:02;6.80;;;3.17;;
79227;SDS011;75303;53.496;10.214;2024-03-07T06:52:28;10.07;;;3.55;;
79227;SDS011;75303;53.496;10.214;2024-03-07T06:54:53;10.80;;;3.63;;
79227;SDS011;75303;53.496;10.214;2024-03-07T06:57:18;8.73;;;3.77;;
79227;SDS011;75303;53.496;10.214;2024-03-07T06:59:43;8.23;;;2.60;;
79227;SDS011;75303;53.496;10.214;2024-03-07T07:02:09;10.30;;;3.43;;
79227;SDS011;75303;53.496;10.214;2024-03-07T07:04:34;6.20;;;2.93;;
79227;SDS011;75303;53.496;10.214;2024-03-07T07:07:09;10.45;;;3.92;;
79227;SDS011;75303;53.496;10.214;2024-03-07T07:09:37;9.27;;;3.42;;
79227;SDS011;75303;53.496;10.214;2024-03-07T07:12:03;8.55;;;2.92;;
79227;SDS011;75303;53.496;10.214;2024-03-07T07:14:28;7.32;;;2.97;;
79227;SDS011;75303;53.496;10.214;2024-03-07T07:16:54;11.18;;;3.70;;
79227;SDS011;75303;53.496;10.214;2024-03-07T07:19:20;9.82;;;3.03;;
79227;SDS011;75303;53.496;10.214;2024-03-07T07:21:46;8.57;;;2.65;;
79227;SDS011;75303;53.496;10.214;2024-03-07T07:24:12;7.82;;;3.20;;
79227;SDS011;75303;53.496;10.214;2024-03-07T07:26:37;7.43;;;2.93;;
79227;SDS011;75303;53.496;10.214;2024-03-07T07:29:03;8.93;;;3.13;;
79227;SDS011;75303;53.496;10.214;2024-03-07T07:31:29;9.73;;;3.58;;
79227;SDS011;75303;53.496;10.214;2024-03-07T07:33:57;9.93;;;3.97;;
79227;SDS011;75303;53.496;10.214;2024-03-07T07:36:22;8.45;;;3.20;;
79227;SDS011;75303;53.496;10.214;2024-03-07T07:38:47;9.17;;;2.87;;
79227;SDS011;75303;53.496;10.214;2024-03-07T07:41:13;9.23;;;3.77;;
79227;SDS011;75303;53.496;10.214;2024-03-07T07:43:42;10.35;;;3.67;;
79227;SDS011;75303;53.496;10.214;2024-03-07T07:46:08;6.40;;;3.03;;
79227;SDS011;75303;53.496;10.214;2024-03-07T07:48:33;10.70;;;3.80;;
79227;SDS011;75303;53.496;10.214;2024-03-07T07:50:59;9.07;;;4.00;;
79227;SDS011;75303;53.496;10.214;2024-03-07T07:53:28;13.23;;;3.70;;
79227;SDS011;75303;53.496;10.214;2024-03-07T07:55:53;7.87;;;3.00;;
79227;SDS011;75303;53.496;10.214;2024-03-07T07:58:19;10.82;;;3.20;;
79227;SDS011;75303;53.496;10.214;2024-03-07T08:00:44;8.57;;;3.50;;
79227;SDS011;75303;53.496;10.214;2024-03-07T08:03:09;7.90;;;3.78;;
79227;SDS011;75303;53.496;10.214;2024-03-07T08:05:36;7.93;;;2.95;;
79227;SDS011;75303;53.496;10.214;2024-03-07T08:08:03;6.50;;;2.90;;
79227;SDS011;75303;53.496;10.214;2024-03-07T08:10:31;8.43;;;3.60;;
79227;SDS011;75303;53.496;10.214;2024-03-07T08:12:58;9.65;;;3.30;;
79227;SDS011;75303;53.496;10.214;2024-03-07T08:15:25;8.55;;;2.53;;
79227;SDS011;75303;53.496;10.214;2024-03-07T08:17:51;7.47;;;3.20;;
79227;SDS011;75303;53.496;10.214;2024-03-07T08:20:18;8.27;;;3.20;;
79227;SDS011;75303;53.496;10.214;2024-03-07T08:22:45;9.77;;;2.67;;
79227;SDS011;75303;53.496;10.214;2024-03-07T08:25:12;7.97;;;3.28;;
79227;SDS011;75303;53.496;10.214;2024-03-07T08:27:38;11.02;;;4.18;;
79227;SDS011;75303;53.496;10.214;2024-03-07T08:30:06;12.13;;;3.75;;
79227;SDS011;75303;53.496;10.214;2024-03-07T08:32:36;9.27;;;3.53;;
79227;SDS011;75303;53.496;10.214;2024-03-07T08:35:02;10.00;;;3.75;;
79227;SDS011;75303;53.496;10.214;2024-03-07T08:37:32;7.70;;;3.20;;
79227;SDS011;75303;53.496;10.214;2024-03-07T08:39:59;7.47;;;2.47;;
79227;SDS011;75303;53.496;10.214;2024-03-07T08:42:24;7.32;;;2.97;;
79227;SDS011;75303;53.496;10.214;2024-03-07T08:44:49;9.07;;;3.17;;
79227;SDS011;75303;53.496;10.214;2024-03-07T08:47:14;7.13;;;2.70;;
79227;SDS011;75303;53.496;10.214;2024-03-07T08:49:40;9.73;;;3.05;;
79227;SDS011;75303;53.496;10.214;2024-03-07T08:52:05;11.20;;;3.63;;
79227;SDS011;75303;53.496;10.214;2024-03-07T08:54:31;10.00;;;3.03;;
79227;SDS011;75303;53.496;10.214;2024-03-07T08:56:57;7.17;;;2.53;;
79227;SDS011;75303;53.496;10.214;2024-03-07T08:59:22;8.30;;;3.37;;
79227;SDS011;75303;53.496;10.214;2024-03-07T09:01:47;9.38;;;3.05;;
79227;SDS011;75303;53.496;10.214;2024-03-07T09:04:13;9.05;;;4.22;;
79227;SDS011;75303;53.496;10.214;2024-03-07T09:06:39;8.98;;;3.42;;
79227;SDS011;75303;53.496;10.214;2024-03-07T09:09:04;12.23;;;3.80;;
79227;SDS011;75303;53.496;10.214;2024-03-07T09:11:33;9.27;;;3.25;;
79227;SDS011;75303;53.496;10.214;2024-03-07T09:13:59;9.80;;;3.70;;
79227;SDS011;75303;53.496;10.214;2024-03-07T09:16:24;9.30;;;3.50;;
79227;SDS011;75303;53.496;10.214;2024-03-07T09:18:49;10.88;;;3.95;;
79227;SDS011;75303;53.496;10.214;2024-03-07T09:21:14;12.03;;;5.17;;
79227;SDS011;75303;53.496;10.214;2024-03-07T09:23:40;7.80;;;3.38;;
79227;SDS011;75303;53.496;10.214;2024-03-07T09:26:06;9.57;;;3.53;;
79227;SDS011;75303;53.496;10.214;2024-03-07T09:28:32;10.90;;;3.75;;
79227;SDS011;75303;53.496;10.214;2024-03-07T09:30:57;10.07;;;3.27;;
79227;SDS011;75303;53.496;10.214;2024-03-07T09:33:22;12.63;;;3.93;;
79227;SDS011;75303;53.496;10.214;2024-03-07T09:35:47;10.33;;;3.40;;
79227;SDS011;75303;53.496;10.214;2024-03-07T09:38:13;11.18;;;4.22;;
79227;SDS011;75303;53.496;10.214;2024-03-07T09:40:38;12.17;;;4.07;;
79227;SDS011;75303;53.496;10.214;2024-03-07T09:43:03;13.03;;;4.50;;
79227;SDS011;75303;53.496;10.214;2024-03-07T09:45:30;9.32;;;4.00;;
79227;SDS011;75303;53.496;10.214;2024-03-07T09:47:56;11.80;;;4.30;;
79227;SDS011;75303;53.496;10.214;2024-03-07T09:50:22;13.45;;;4.15;;
79227;SDS011;75303;53.496;10.214;2024-03-07T09:52:49;10.75;;;4.03;;
79227;SDS011;75303;53.496;10.214;2024-03-07T09:55:17;13.73;;;4.90;;
79227;SDS011;75303;53.496;10.214;2024-03-07T09:57:43;10.35;;;3.95;;
79227;SDS011;75303;53.496;10.214;2024-03-07T10:00:09;17.35;;;5.22;;
79227;SDS011;75303;53.496;10.214;2024-03-07T10:02:43;12.30;;;4.45;;
79227;SDS011;75303;53.496;10.214;2024-03-07T10:05:11;16.38;;;4.97;;
79227;SDS011;75303;53.496;10.214;2024-03-07T10:07:40;17.42;;;6.38;;
79227;SDS011;75303;53.496;10.214;2024-03-07T10:10:05;13.80;;;4.07;;
79227;SDS011;75303;53.496;10.214;2024-03-07T10:12:35;12.10;;;3.90;;
79227;SDS011;75303;53.496;10.214;2024-03-07T10:15:03;10.05;;;4.13;;
79227;SDS011;75303;53.496;10.214;2024-03-07T10:17:30;12.00;;;4.00;;
79227;SDS011;75303;53.496;10.214;2024-03-07T10:19:55;14.95;;;5.75;;
79227;SDS011;75303;53.496;10.214;2024-03-07T10:22:24;10.70;;;4.40;;
79227;SDS011;75303;53.496;10.214;2024-03-07T10:24:50;11.40;;;4.50;;
79227;SDS011;75303;53.496;10.214;2024-03-07T10:27:17;10.18;;;4.80;;
79227;SDS011;75303;53.496;10.214;2024-03-07T10:29:45;14.52;;;5.25;;
79227;SDS011;75303;53.496;10.214;2024-03-07T10:32:18;30.38;;;10.32;;
79227;SDS011;75303;53.496;10.214;2024-03-07T10:34:44;12.07;;;4.43;;
79227;SDS011;75303;53.496;10.214;2024-03-07T10:37:11;11.07;;;4.22;;
79227;SDS011;75303;53.496;10.214;2024-03-07T10:39:36;11.90;;;4.07;;
79227;SDS011;75303;53.496;10.214;2024-03-07T10:42:01;10.83;;;3.97;;
79227;SDS011;75303;53.496;10.214;2024-03-07T10:44:30;14.38;;;4.18;;
79227;SDS011;75303;53.496;10.214;2024-03-07T10:46:57;11.15;;;4.68;;
79227;SDS011;75303;53.496;10.214;2024-03-07T10:49:29;13.18;;;4.28;;
79227;SDS011;75303;53.496;10.214;2024-03-07T10:52:02;12.55;;;4.97;;
79227;SDS011;75303;53.496;10.214;2024-03-07T10:54:36;12.65;;;4.40;;
79227;SDS011;75303;53.496;10.214;2024-03-07T10:57:37;11.07;;;4.28;;
79227;SDS011;75303;53.496;10.214;2024-03-07T11:00:32;11.25;;;4.40;;
79227;SDS011;75303;53.496;10.214;2024-03-07T11:03:01;12.52;;;5.05;;
79227;SDS011;75303;53.496;10.214;2024-03-07T11:05:32;14.15;;;5.55;;
79227;SDS011;75303;53.496;10.214;2024-03-07T11:08:02;14.07;;;5.00;;
79227;SDS011;75303;53.496;10.214;2024-03-07T11:10:37;11.77;;;4.93;;
79227;SDS011;75303;53.496;10.214;2024-03-07T11:13:06;12.05;;;4.13;;
79227;SDS011;75303;53.496;10.214;2024-03-07T11:15:35;13.02;;;5.05;;
79227;SDS011;75303;53.496;10.214;2024-03-07T11:18:01;16.48;;;4.57;;
79227;SDS011;75303;53.496;10.214;2024-03-07T11:20:27;14.60;;;4.37;;
79227;SDS011;75303;53.496;10.214;2024-03-07T11:22:59;7.95;;;4.35;;
79227;SDS011;75303;53.496;10.214;2024-03-07T11:25:26;12.13;;;4.63;;
79227;SDS011;75303;53.496;10.214;2024-03-07T11:27:52;14.57;;;4.88;;
79227;SDS011;75303;53.496;10.214;2024-03-07T11:30:20;18.10;;;6.38;;
79227;SDS011;75303;53.496;10.214;2024-03-07T11:32:49;12.65;;;5.03;;
79227;SDS011;75303;53.496;10.214;2024-03-07T11:35:18;10.00;;;5.40;;
79227;SDS011;75303;53.496;10.214;2024-03-07T11:37:57;14.40;;;5.25;;
79227;SDS011;75303;53.496;10.214;2024-03-07T11:42:49;12.95;;;5.40;;
79227;SDS011;75303;53.496;10.214;2024-03-07T11:45:17;14.43;;;4.80;;
79227;SDS011;75303;53.496;10.214;2024-03-07T11:47:58;14.50;;;5.13;;
79227;SDS011;75303;53.496;10.214;2024-03-07T11:50:37;13.27;;;4.93;;
79227;SDS011;75303;53.496;10.214;2024-03-07T11:53:06;12.10;;;4.93;;
79227;SDS011;75303;53.496;10.214;2024-03-07T11:55:33;11.27;;;5.55;;
79227;SDS011;75303;53.496;10.214;2024-03-07T11:58:11;17.75;;;6.25;;
79227;SDS011;75303;53.496;10.214;2024-03-07T12:00:46;13.00;;;5.72;;
79227;SDS011;75303;53.496;10.214;2024-03-07T12:03:12;14.25;;;4.57;;
79227;SDS011;75303;53.496;10.214;2024-03-07T12:05:46;15.45;;;5.65;;
79227;SDS011;75303;53.496;10.214;2024-03-07T12:08:16;15.38;;;4.90;;
79227;SDS011;75303;53.496;10.214;2024-03-07T12:10:42;16.33;;;5.27;;
79227;SDS011;75303;53.496;10.214;2024-03-07T12:13:11;12.43;;;5.75;;
79227;SDS011;75303;53.496;10.214;2024-03-07T12:15:38;12.13;;;4.97;;
79227;SDS011;75303;53.496;10.214;2024-03-07T12:18:04;14.55;;;5.57;;
79227;SDS011;75303;53.496;10.214;2024-03-07T12:23:00;13.07;;;5.32;;
79227;SDS011;75303;53.496;10.214;2024-03-07T12:25:27;15.02;;;5.50;;
79227;SDS011;75303;53.496;10.214;2024-03-07T12:28:10;12.27;;;4.25;;
79227;SDS011;75303;53.496;10.214;2024-03-07T12:33:11;13.13;;;5.95;;
79227;SDS011;75303;53.496;10.214;2024-03-07T12:35:39;21.38;;;5.82;;
79227;SDS011;75303;53.496;10.214;2024-03-07T12:38:08;11.52;;;4.65;;
79227;SDS011;75303;53.496;10.214;2024-03-07T12:40:36;12.55;;;6.00;;
79227;SDS011;75303;53.496;10.214;2024-03-07T12:43:16;16.17;;;5.45;;
79227;SDS011;75303;53.496;10.214;2024-03-07T12:45:44;13.07;;;5.57;;
79227;SDS011;75303;53.496;10.214;2024-03-07T12:48:23;15.27;;;5.68;;
79227;SDS011;75303;53.496;10.214;2024-03-07T12:50:48;19.23;;;5.60;;
79227;SDS011;75303;53.496;10.214;2024-03-07T12:53:19;14.02;;;5.10;;
79227;SDS011;75303;53.496;10.214;2024-03-07T12:55:44;13.32;;;5.15;;
79227;SDS011;75303;53.496;10.214;2024-03-07T12:58:10;17.10;;;6.70;;
79227;SDS011;75303;53.496;10.214;2024-03-07T13:00:38;14.20;;;5.47;;
79227;SDS011;75303;53.496;10.214;2024-03-07T13:03:06;14.00;;;5.57;;
79227;SDS011;75303;53.496;10.214;2024-03-07T13:05:31;13.77;;;4.97;;
79227;SDS011;75303;53.496;10.214;2024-03-07T13:07:56;12.20;;;4.93;;
79227;SDS011;75303;53.496;10.214;2024-03-07T13:10:22;12.57;;;4.85;;
79227;SDS011;75303;53.496;10.214;2024-03-07T13:12:48;14.98;;;5.70;;
79227;SDS011;75303;53.496;10.214;2024-03-07T13:15:14;12.48;;;5.38;;
79227;SDS011;75303;53.496;10.214;2024-03-07T13:17:40;16.63;;;6.07;;
79227;SDS011;75303;53.496;10.214;2024-03-07T13:20:08;16.65;;;6.20;;
79227;SDS011;75303;53.496;10.214;2024-03-07T13:22:42;16.05;;;5.88;;
79227;SDS011;75303;53.496;10.214;2024-03-07T13:25:10;15.05;;;5.93;;
79227;SDS011;75303;53.496;10.214;2024-03-07T13:27:44;11.35;;;4.93;;
79227;SDS011;75303;53.496;10.214;2024-03-07T13:30:17;12.50;;;5.53;;
79227;SDS011;75303;53.496;10.214;2024-03-07T13:32:48;14.15;;;5.65;;
79227;SDS011;75303;53.496;10.214;2024-03-07T13:35:14;14.35;;;5.28;;
79227;SDS011;75303;53.496;10.214;2024-03-07T13:37:40;12.10;;;4.90;;
79227;SDS011;75303;53.496;10.214;2024-03-07T13:40:06;15.95;;;5.18;;
79227;SDS011;75303;53.496;10.214;2024-03-07T13:42:47;13.35;;;6.03;;
79227;SDS011;75303;53.496;10.214;2024-03-07T13:45:13;16.77;;;6.15;;
79227;SDS011;75303;53.496;10.214;2024-03-07T13:47:38;14.88;;;5.97;;
79227;SDS011;75303;53.496;10.214;2024-03-07T13:50:04;14.27;;;5.07;;
79227;SDS011;75303;53.496;10.214;2024-03-07T13:52:29;16.85;;;5.70;;
79227;SDS011;75303;53.496;10.214;2024-03-07T13:54:56;16.35;;;6.47;;
79227;SDS011;75303;53.496;10.214;2024-03-07T13:57:29;13.57;;;5.22;;
79227;SDS011;75303;53.496;10.214;2024-03-07T14:00:16;12.77;;;6.15;;
79227;SDS011;75303;53.496;10.214;2024-03-07T14:05:58;14.15;;;5.20;;
79227;SDS011;75303;53.496;10.214;2024-03-07T14:17:59;12.10;;;5.22;;
79227;SDS011;75303;53.496;10.214;2024-03-07T14:20:52;13.80;;;5.53;;
79227;SDS011;75303;53.496;10.214;2024-03-07T14:26:47;14.32;;;5.82;;
79227;SDS011;75303;53.496;10.214;2024-03-07T14:32:24;12.18;;;5.40;;
79227;SDS011;75303;53.496;10.214;2024-03-07T14:34:57;13.27;;;6.03;;
79227;SDS011;75303;53.496;10.214;2024-03-07T14:37:46;12.15;;;5.15;;
79227;SDS011;75303;53.496;10.214;2024-03-07T14:40:18;14.43;;;6.10;;
79227;SDS011;75303;53.496;10.214;2024-03-07T14:42:47;13.63;;;5.45;;
79227;SDS011;75303;53.496;10.214;2024-03-07T14:45:15;13.32;;;5.45;;
79227;SDS011;75303;53.496;10.214;2024-03-07T14:47:45;11.60;;;4.78;;
79227;SDS011;75303;53.496;10.214;2024-03-07T14:50:13;14.05;;;5.82;;
79227;SDS011;75303;53.496;10.214;2024-03-07T14:52:41;18.10;;;5.53;;
79227;SDS011;75303;53.496;10.214;2024-03-07T14:55:09;12.80;;;5.38;;
79227;SDS011;75303;53.496;10.214;2024-03-07T14:57:43;13.55;;;6.03;;